sensor_id;sensor_type;location;lat;lon;timestamp;pressure;altitude;pressure_sealevel;temperature;humidity
13612;BME280;6877;51.436;6.774;2023-02-16T00:00:41;102057.19;;;3.67;90.00
13612;BME280;6877;51.436;6.774;2023-02-16T00:03:14;102075.56;;;3.47;90.14
13612;BME280;6877;51.436;6.774;2023-02-16T00:05:41;102059.31;;;3.52;91.28
13612;BME280;6877;51.436;6.774;2023-02-16T00:08:08;102065.22;;;3.47;90.63
13612;BME280;6877;51.436;6.774;2023-02-16T00:10:36;102049.59;;;3.44;91.45
13612;BME280;6877;51.436;6.774;2023-02-16T00:13:24;102058.88;;;3.38;91.09
13612;BME280;6877;51.436;6.774;2023-02-16T00:16:18;102066.91;;;3.20;91.61
13612;BME280;6877;51.436;6.774;2023-02-16T00:18:51;102050.16;;;3.34;92.37
13612;BME280;6877;51.436;6.774;2023-02-16T00:21:17;102049.22;;;3.32;91.46
13612;BME280;6877;51.436;6.774;2023-02-16T00:23:44;102055.69;;;3.19;91.63
13612;BME280;6877;51.436;6.774;2023-02-16T00:26:22;102037.59;;;3.19;92.42
13612;BME280;6877;51.436;6.774;2023-02-16T00:28:50;102043.72;;;3.23;92.06
13612;BME280;6877;51.436;6.774;2023-02-16T00:31:22;102048.81;;;3.20;91.71
13612;BME280;6877;51.436;6.774;2023-02-16T00:33:54;102050.16;;;3.09;91.88
13612;BME280;6877;51.436;6.774;2023-02-16T00:36:26;102052.28;;;2.95;92.29
13612;BME280;6877;51.436;6.774;2023-02-16T00:38:57;102052.44;;;2.99;93.04
13612;BME280;6877;51.436;6.774;2023-02-16T00:41:28;102049.53;;;3.16;92.55
13612;BME280;6877;51.436;6.774;2023-02-16T00:44:15;102038.34;;;3.17;92.34
13612;BME280;6877;51.436;6.774;2023-02-16T00:46:43;102038.41;;;3.18;92.29
13612;BME280;6877;51.436;6.774;2023-02-16T00:49:20;102030.69;;;3.20;91.98
13612;BME280;6877;51.436;6.774;2023-02-16T00:51:47;102028.78;;;3.14;91.81
13612;BME280;6877;51.436;6.774;2023-02-16T00:54:14;102038.06;;;3.08;92.09
13612;BME280;6877;51.436;6.774;2023-02-16T00:56:45;102045.56;;;3.00;91.91
13612;BME280;6877;51.436;6.774;2023-02-16T00:59:20;102042.69;;;2.91;92.44
13612;BME280;6877;51.436;6.774;2023-02-16T01:01:52;102042.06;;;2.98;92.57
13612;BME280;6877;51.436;6.774;2023-02-16T01:04:24;102031.91;;;3.04;92.34
13612;BME280;6877;51.436;6.774;2023-02-16T01:06:55;102032.78;;;3.05;91.99
13612;BME280;6877;51.436;6.774;2023-02-16T01:09:40;102036.13;;;3.02;92.07
13612;BME280;6877;51.436;6.774;2023-02-16T01:12:25;102046.56;;;3.04;92.17
13612;BME280;6877;51.436;6.774;2023-02-16T01:14:56;102038.59;;;2.97;91.69
13612;BME280;6877;51.436;6.774;2023-02-16T01:17:23;102029.84;;;2.94;92.20
13612;BME280;6877;51.436;6.774;2023-02-16T01:19:50;102034.25;;;2.96;92.16
13612;BME280;6877;51.436;6.774;2023-02-16T01:22:21;102029.97;;;2.97;92.11
13612;BME280;6877;51.436;6.774;2023-02-16T01:24:48;102029.09;;;2.96;92.44
13612;BME280;6877;51.436;6.774;2023-02-16T01:27:19;102038.53;;;2.96;91.86
13612;BME280;6877;51.436;6.774;2023-02-16T01:29:45;102042.94;;;2.98;92.13
13612;BME280;6877;51.436;6.774;2023-02-16T01:32:17;102035.13;;;2.97;92.13
13612;BME280;6877;51.436;6.774;2023-02-16T01:34:43;102034.94;;;2.91;92.04
13612;BME280;6877;51.436;6.774;2023-02-16T01:37:15;102024.63;;;2.92;92.09
13612;BME280;6877;51.436;6.774;2023-02-16T01:39:42;102023.72;;;2.90;92.13
13612;BME280;6877;51.436;6.774;2023-02-16T01:45:02;102017.44;;;2.84;92.37
13612;BME280;6877;51.436;6.774;2023-02-16T01:47:52;102031.84;;;2.77;92.63
13612;BME280;6877;51.436;6.774;2023-02-16T01:50:40;102029.28;;;2.77;92.81
13612;BME280;6877;51.436;6.774;2023-02-16T01:55:46;102034.22;;;2.71;92.58
13612;BME280;6877;51.436;6.774;2023-02-16T02:03:27;102018.22;;;2.81;92.94
13612;BME280;6877;51.436;6.774;2023-02-16T02:06:16;102024.94;;;2.76;92.70
13612;BME280;6877;51.436;6.774;2023-02-16T02:08:59;102024.09;;;2.77;92.94
13612;BME280;6877;51.436;6.774;2023-02-16T02:11:38;102018.91;;;2.75;93.18
13612;BME280;6877;51.436;6.774;2023-02-16T02:14:21;102016.97;;;2.70;93.03
13612;BME280;6877;51.436;6.774;2023-02-16T02:16:56;102014.03;;;2.59;92.92
13612;BME280;6877;51.436;6.774;2023-02-16T02:19:24;102015.03;;;2.63;93.70
13612;BME280;6877;51.436;6.774;2023-02-16T02:28:00;102007.81;;;2.54;93.76
13612;BME280;6877;51.436;6.774;2023-02-16T02:31:02;102008.91;;;2.61;94.19
13612;BME280;6877;51.436;6.774;2023-02-16T02:41:47;101988.00;;;2.53;94.07
13612;BME280;6877;51.436;6.774;2023-02-16T02:44:49;101995.75;;;2.53;94.32
13612;BME280;6877;51.436;6.774;2023-02-16T02:47:17;101979.47;;;2.55;93.63
13612;BME280;6877;51.436;6.774;2023-02-16T02:49:53;101976.25;;;2.63;93.75
13612;BME280;6877;51.436;6.774;2023-02-16T02:52:20;101971.91;;;2.62;93.36
13612;BME280;6877;51.436;6.774;2023-02-16T02:54:48;101972.63;;;2.58;93.02
13612;BME280;6877;51.436;6.774;2023-02-16T02:57:41;101978.09;;;2.41;93.61
13612;BME280;6877;51.436;6.774;2023-02-16T03:00:43;101965.69;;;2.57;93.84
13612;BME280;6877;51.436;6.774;2023-02-16T03:05:52;101962.38;;;2.86;92.19
13612;BME280;6877;51.436;6.774;2023-02-16T03:08:27;101965.28;;;2.70;92.20
13612;BME280;6877;51.436;6.774;2023-02-16T03:10:58;101968.13;;;2.52;92.62
13612;BME280;6877;51.436;6.774;2023-02-16T03:13:59;101953.91;;;2.65;93.42
13612;BME280;6877;51.436;6.774;2023-02-16T03:16:40;101953.41;;;2.75;92.94
13612;BME280;6877;51.436;6.774;2023-02-16T03:19:16;101955.09;;;2.74;92.15
13612;BME280;6877;51.436;6.774;2023-02-16T03:22:01;101938.09;;;2.81;92.27
13612;BME280;6877;51.436;6.774;2023-02-16T03:24:51;101938.72;;;3.01;91.58
13612;BME280;6877;51.436;6.774;2023-02-16T03:27:38;101945.44;;;2.96;90.76
13612;BME280;6877;51.436;6.774;2023-02-16T03:30:25;101939.19;;;2.89;91.43
13612;BME280;6877;51.436;6.774;2023-02-16T03:32:57;101937.34;;;2.85;91.31
13612;BME280;6877;51.436;6.774;2023-02-16T03:35:29;101939.94;;;2.85;91.78
13612;BME280;6877;51.436;6.774;2023-02-16T03:37:56;101946.75;;;2.83;91.56
13612;BME280;6877;51.436;6.774;2023-02-16T03:40:26;101960.09;;;2.70;91.29
13612;BME280;6877;51.436;6.774;2023-02-16T03:43:12;101958.78;;;2.55;92.35
13612;BME280;6877;51.436;6.774;2023-02-16T03:45:40;101941.88;;;2.65;92.63
13612;BME280;6877;51.436;6.774;2023-02-16T03:48:07;101946.16;;;2.65;91.71
13612;BME280;6877;51.436;6.774;2023-02-16T03:50:34;101952.91;;;2.61;92.20
13612;BME280;6877;51.436;6.774;2023-02-16T03:53:01;101969.34;;;2.62;92.07
13612;BME280;6877;51.436;6.774;2023-02-16T03:55:39;101963.75;;;2.49;92.33
13612;BME280;6877;51.436;6.774;2023-02-16T03:58:07;101967.75;;;2.41;92.62
13612;BME280;6877;51.436;6.774;2023-02-16T04:00:35;101955.94;;;2.48;92.91
13612;BME280;6877;51.436;6.774;2023-02-16T04:03:03;101961.09;;;2.48;92.63
13612;BME280;6877;51.436;6.774;2023-02-16T04:05:31;101960.97;;;2.43;92.99
13612;BME280;6877;51.436;6.774;2023-02-16T04:07:57;101949.69;;;2.41;92.95
13612;BME280;6877;51.436;6.774;2023-02-16T04:10:29;101957.84;;;2.28;92.95
13612;BME280;6877;51.436;6.774;2023-02-16T04:13:00;101945.06;;;2.32;93.63
13612;BME280;6877;51.436;6.774;2023-02-16T04:15:29;101941.94;;;2.41;93.61
13612;BME280;6877;51.436;6.774;2023-02-16T04:17:56;101956.59;;;2.42;93.25
13612;BME280;6877;51.436;6.774;2023-02-16T04:20:27;101953.88;;;2.38;93.08
13612;BME280;6877;51.436;6.774;2023-02-16T04:22:54;101953.44;;;2.25;93.26
13612;BME280;6877;51.436;6.774;2023-02-16T04:25:26;101957.41;;;2.16;93.95
13612;BME280;6877;51.436;6.774;2023-02-16T04:27:54;101948.94;;;2.20;94.03
13612;BME280;6877;51.436;6.774;2023-02-16T04:30:27;101950.03;;;2.26;93.81
13612;BME280;6877;51.436;6.774;2023-02-16T04:32:54;101948.72;;;2.14;93.46
13612;BME280;6877;51.436;6.774;2023-02-16T04:35:26;101945.47;;;2.19;94.14
13612;BME280;6877;51.436;6.774;2023-02-16T04:37:52;101953.44;;;2.25;93.97
13612;BME280;6877;51.436;6.774;2023-02-16T04:40:24;101961.16;;;2.24;93.44
13612;BME280;6877;51.436;6.774;2023-02-16T04:42:50;101963.34;;;2.13;93.90
13612;BME280;6877;51.436;6.774;2023-02-16T04:45:22;101957.53;;;2.19;94.67
13612;BME280;6877;51.436;6.774;2023-02-16T04:47:48;101954.97;;;2.20;94.38
13612;BME280;6877;51.436;6.774;2023-02-16T04:50:14;101948.81;;;2.17;94.48
13612;BME280;6877;51.436;6.774;2023-02-16T04:52:41;101951.53;;;2.20;94.28
13612;BME280;6877;51.436;6.774;2023-02-16T04:55:12;101948.03;;;2.18;94.28
13612;BME280;6877;51.436;6.774;2023-02-16T04:57:43;101949.59;;;2.14;94.27
13612;BME280;6877;51.436;6.774;2023-02-16T05:00:10;101943.78;;;2.20;94.54
13612;BME280;6877;51.436;6.774;2023-02-16T05:02:37;101950.81;;;2.24;94.07
13612;BME280;6877;51.436;6.774;2023-02-16T05:05:08;101951.47;;;2.18;93.86
13612;BME280;6877;51.436;6.774;2023-02-16T05:07:35;101947.91;;;2.15;94.30
13612;BME280;6877;51.436;6.774;2023-02-16T05:10:07;101941.25;;;2.21;94.23
13612;BME280;6877;51.436;6.774;2023-02-16T05:12:39;101942.25;;;2.25;94.20
13612;BME280;6877;51.436;6.774;2023-02-16T05:15:29;101941.28;;;2.23;94.04
13612;BME280;6877;51.436;6.774;2023-02-16T05:18:00;101942.88;;;2.18;93.93
13612;BME280;6877;51.436;6.774;2023-02-16T05:20:26;101944.28;;;2.09;94.22
13612;BME280;6877;51.436;6.774;2023-02-16T05:23:13;101949.56;;;2.13;94.52
13612;BME280;6877;51.436;6.774;2023-02-16T05:25:39;101954.50;;;2.06;94.17
13612;BME280;6877;51.436;6.774;2023-02-16T05:28:11;101951.47;;;1.94;94.66
13612;BME280;6877;51.436;6.774;2023-02-16T05:30:37;101948.78;;;1.91;95.32
13612;BME280;6877;51.436;6.774;2023-02-16T05:33:03;101948.97;;;1.96;95.40
13612;BME280;6877;51.436;6.774;2023-02-16T05:35:35;101951.38;;;1.91;95.18
13612;BME280;6877;51.436;6.774;2023-02-16T05:38:01;101950.50;;;1.91;95.68
13612;BME280;6877;51.436;6.774;2023-02-16T05:40:32;101956.88;;;2.00;95.46
13612;BME280;6877;51.436;6.774;2023-02-16T05:42:59;101969.16;;;2.07;95.34
13612;BME280;6877;51.436;6.774;2023-02-16T05:45:25;101962.25;;;2.06;95.04
13612;BME280;6877;51.436;6.774;2023-02-16T05:47:57;101959.88;;;2.13;95.27
13612;BME280;6877;51.436;6.774;2023-02-16T05:50:23;101954.00;;;2.17;95.19
13612;BME280;6877;51.436;6.774;2023-02-16T05:52:54;101956.88;;;2.24;95.07
13612;BME280;6877;51.436;6.774;2023-02-16T05:55:21;101950.31;;;2.34;94.59
13612;BME280;6877;51.436;6.774;2023-02-16T05:57:52;101948.16;;;2.46;93.75
13612;BME280;6877;51.436;6.774;2023-02-16T06:00:19;101956.91;;;2.51;93.69
13612;BME280;6877;51.436;6.774;2023-02-16T06:02:45;101944.94;;;2.53;93.25
13612;BME280;6877;51.436;6.774;2023-02-16T06:05:12;101950.22;;;2.58;93.02
13612;BME280;6877;51.436;6.774;2023-02-16T06:07:38;101940.00;;;2.61;92.72
13612;BME280;6877;51.436;6.774;2023-02-16T06:10:05;101938.31;;;2.62;92.57
13612;BME280;6877;51.436;6.774;2023-02-16T06:12:37;101937.50;;;2.64;92.57
13612;BME280;6877;51.436;6.774;2023-02-16T06:15:08;101938.50;;;2.68;92.40
13612;BME280;6877;51.436;6.774;2023-02-16T06:17:35;101937.06;;;2.76;92.40
13612;BME280;6877;51.436;6.774;2023-02-16T06:20:02;101939.00;;;2.83;92.04
13612;BME280;6877;51.436;6.774;2023-02-16T06:22:34;101953.91;;;2.90;91.22
13612;BME280;6877;51.436;6.774;2023-02-16T06:25:00;101951.50;;;2.96;91.22
13612;BME280;6877;51.436;6.774;2023-02-16T06:27:27;101930.97;;;3.02;90.65
13612;BME280;6877;51.436;6.774;2023-02-16T06:29:54;101933.75;;;3.09;90.19
13612;BME280;6877;51.436;6.774;2023-02-16T06:32:20;101936.44;;;3.12;89.79
13612;BME280;6877;51.436;6.774;2023-02-16T06:34:47;101937.47;;;3.17;89.68
13612;BME280;6877;51.436;6.774;2023-02-16T06:37:18;101934.22;;;3.22;88.82
13612;BME280;6877;51.436;6.774;2023-02-16T06:39:44;101941.31;;;3.30;88.83
13612;BME280;6877;51.436;6.774;2023-02-16T06:42:10;101943.06;;;3.31;88.84
13612;BME280;6877;51.436;6.774;2023-02-16T06:44:37;101942.25;;;3.32;88.85
13612;BME280;6877;51.436;6.774;2023-02-16T06:47:14;101949.28;;;3.37;88.76
13612;BME280;6877;51.436;6.774;2023-02-16T06:49:40;101942.66;;;3.45;88.04
13612;BME280;6877;51.436;6.774;2023-02-16T06:52:07;101952.31;;;3.51;87.51
13612;BME280;6877;51.436;6.774;2023-02-16T06:54:33;101950.69;;;3.55;87.31
13612;BME280;6877;51.436;6.774;2023-02-16T06:57:04;101949.06;;;3.58;87.00
13612;BME280;6877;51.436;6.774;2023-02-16T06:59:36;101938.03;;;3.65;87.05
13612;BME280;6877;51.436;6.774;2023-02-16T07:02:02;101944.25;;;3.70;86.52
13612;BME280;6877;51.436;6.774;2023-02-16T07:04:34;101941.75;;;3.74;86.48
13612;BME280;6877;51.436;6.774;2023-02-16T07:07:00;101938.38;;;3.76;86.19
13612;BME280;6877;51.436;6.774;2023-02-16T07:09:27;101935.09;;;3.82;85.82
13612;BME280;6877;51.436;6.774;2023-02-16T07:11:58;101937.84;;;3.88;85.39
13612;BME280;6877;51.436;6.774;2023-02-16T07:14:30;101933.66;;;3.93;84.96
13612;BME280;6877;51.436;6.774;2023-02-16T07:17:02;101942.38;;;3.97;85.01
13612;BME280;6877;51.436;6.774;2023-02-16T07:19:34;101937.38;;;4.03;84.46
13612;BME280;6877;51.436;6.774;2023-02-16T07:22:01;101926.31;;;4.08;83.86
13612;BME280;6877;51.436;6.774;2023-02-16T07:24:32;101930.78;;;4.14;83.63
13612;BME280;6877;51.436;6.774;2023-02-16T07:26:59;101936.06;;;4.18;83.33
13612;BME280;6877;51.436;6.774;2023-02-16T07:29:25;101931.03;;;4.23;82.97
13612;BME280;6877;51.436;6.774;2023-02-16T07:31:56;101934.50;;;4.25;83.04
13612;BME280;6877;51.436;6.774;2023-02-16T07:34:28;101941.53;;;4.29;82.42
13612;BME280;6877;51.436;6.774;2023-02-16T07:36:59;101948.47;;;4.30;82.35
13612;BME280;6877;51.436;6.774;2023-02-16T07:39:31;101952.06;;;4.35;82.56
13612;BME280;6877;51.436;6.774;2023-02-16T07:42:03;101947.84;;;4.39;81.99
13612;BME280;6877;51.436;6.774;2023-02-16T07:44:35;101940.16;;;4.42;82.38
13612;BME280;6877;51.436;6.774;2023-02-16T07:47:01;101942.91;;;4.48;81.88
13612;BME280;6877;51.436;6.774;2023-02-16T07:49:28;101944.75;;;4.54;81.35
13612;BME280;6877;51.436;6.774;2023-02-16T07:51:54;101948.41;;;4.62;81.26
13612;BME280;6877;51.436;6.774;2023-02-16T07:54:20;101952.09;;;4.70;81.22
13612;BME280;6877;51.436;6.774;2023-02-16T07:56:47;101954.16;;;4.83;80.58
13612;BME280;6877;51.436;6.774;2023-02-16T07:59:14;101959.78;;;5.02;80.13
13612;BME280;6877;51.436;6.774;2023-02-16T08:01:46;101956.78;;;5.23;78.16
13612;BME280;6877;51.436;6.774;2023-02-16T08:04:17;101958.91;;;5.41;77.72
13612;BME280;6877;51.436;6.774;2023-02-16T08:06:49;101952.47;;;5.63;77.25
13612;BME280;6877;51.436;6.774;2023-02-16T08:09:21;101952.03;;;5.84;75.95
13612;BME280;6877;51.436;6.774;2023-02-16T08:11:52;101966.13;;;5.95;75.30
13612;BME280;6877;51.436;6.774;2023-02-16T08:14:19;101954.94;;;5.96;74.79
13612;BME280;6877;51.436;6.774;2023-02-16T08:16:45;101961.00;;;5.98;74.89
13612;BME280;6877;51.436;6.774;2023-02-16T08:19:16;101960.84;;;5.92;74.94
13612;BME280;6877;51.436;6.774;2023-02-16T08:21:43;101957.13;;;5.77;74.76
13612;BME280;6877;51.436;6.774;2023-02-16T08:24:14;101957.00;;;5.73;75.12
13612;BME280;6877;51.436;6.774;2023-02-16T08:26:41;101956.19;;;5.75;75.33
13612;BME280;6877;51.436;6.774;2023-02-16T08:29:08;101965.78;;;5.78;75.21
13612;BME280;6877;51.436;6.774;2023-02-16T08:31:40;101966.72;;;5.81;74.95
13612;BME280;6877;51.436;6.774;2023-02-16T08:34:13;101969.44;;;5.88;75.11
13612;BME280;6877;51.436;6.774;2023-02-16T08:36:46;101975.66;;;5.93;74.42
13612;BME280;6877;51.436;6.774;2023-02-16T08:39:16;101956.91;;;6.09;74.33
13612;BME280;6877;51.436;6.774;2023-02-16T08:41:45;101955.88;;;7.01;72.50
13612;BME280;6877;51.436;6.774;2023-02-16T08:44:13;101949.00;;;8.45;67.57
13612;BME280;6877;51.436;6.774;2023-02-16T08:46:41;101954.22;;;9.70;62.96
13612;BME280;6877;51.436;6.774;2023-02-16T08:49:09;101952.75;;;10.62;58.73
13612;BME280;6877;51.436;6.774;2023-02-16T08:51:41;101947.31;;;11.67;54.79
13612;BME280;6877;51.436;6.774;2023-02-16T08:54:11;101955.22;;;11.50;53.60
13612;BME280;6877;51.436;6.774;2023-02-16T08:56:49;101946.28;;;12.06;53.38
13612;BME280;6877;51.436;6.774;2023-02-16T08:59:22;101940.53;;;12.73;50.90
13612;BME280;6877;51.436;6.774;2023-02-16T09:01:49;101945.22;;;12.39;50.21
13612;BME280;6877;51.436;6.774;2023-02-16T09:04:17;101948.16;;;11.86;51.53
13612;BME280;6877;51.436;6.774;2023-02-16T09:06:45;101944.88;;;11.01;52.70
13612;BME280;6877;51.436;6.774;2023-02-16T09:09:13;101957.00;;;10.13;55.22
13612;BME280;6877;51.436;6.774;2023-02-16T09:11:45;101950.69;;;9.57;57.43
13612;BME280;6877;51.436;6.774;2023-02-16T09:14:17;101954.09;;;9.41;58.48
13612;BME280;6877;51.436;6.774;2023-02-16T09:16:44;101951.50;;;9.48;58.49
13612;BME280;6877;51.436;6.774;2023-02-16T09:19:15;101957.66;;;9.60;58.35
13612;BME280;6877;51.436;6.774;2023-02-16T09:21:42;101959.56;;;9.94;57.14
13612;BME280;6877;51.436;6.774;2023-02-16T09:24:15;101968.41;;;10.39;56.11
13612;BME280;6877;51.436;6.774;2023-02-16T09:26:47;101958.88;;;10.78;54.72
13612;BME280;6877;51.436;6.774;2023-02-16T09:29:17;101966.66;;;10.46;55.04
13612;BME280;6877;51.436;6.774;2023-02-16T09:31:45;101972.59;;;9.88;56.42
13612;BME280;6877;51.436;6.774;2023-02-16T09:34:20;101978.44;;;9.35;58.06
13612;BME280;6877;51.436;6.774;2023-02-16T09:36:49;101970.22;;;8.85;59.83
13612;BME280;6877;51.436;6.774;2023-02-16T09:39:16;101974.22;;;8.44;61.34
13612;BME280;6877;51.436;6.774;2023-02-16T09:41:57;101978.38;;;8.27;62.26
13612;BME280;6877;51.436;6.774;2023-02-16T09:44:49;101982.56;;;8.16;63.27
13612;BME280;6877;51.436;6.774;2023-02-16T09:47:26;101981.56;;;8.01;63.48
13612;BME280;6877;51.436;6.774;2023-02-16T09:49:59;101993.72;;;8.02;63.81
13612;BME280;6877;51.436;6.774;2023-02-16T09:52:35;102003.22;;;7.97;64.20
13612;BME280;6877;51.436;6.774;2023-02-16T09:55:12;102009.28;;;7.96;64.29
13612;BME280;6877;51.436;6.774;2023-02-16T09:58:10;102015.44;;;8.01;64.33
13612;BME280;6877;51.436;6.774;2023-02-16T10:00:50;102009.34;;;7.99;64.27
13612;BME280;6877;51.436;6.774;2023-02-16T10:03:39;102012.66;;;7.86;64.66
13612;BME280;6877;51.436;6.774;2023-02-16T10:06:40;102002.09;;;7.77;65.21
13612;BME280;6877;51.436;6.774;2023-02-16T10:09:15;101998.59;;;7.73;65.48
13612;BME280;6877;51.436;6.774;2023-02-16T10:14:59;101985.41;;;7.61;66.43
13612;BME280;6877;51.436;6.774;2023-02-16T10:22:46;101996.72;;;7.64;66.86
13612;BME280;6877;51.436;6.774;2023-02-16T10:25:15;101997.63;;;7.66;66.63
13612;BME280;6877;51.436;6.774;2023-02-16T10:27:47;102001.06;;;7.65;66.94
13612;BME280;6877;51.436;6.774;2023-02-16T10:30:20;102003.75;;;7.72;66.92
13612;BME280;6877;51.436;6.774;2023-02-16T10:32:53;102002.94;;;7.74;66.87
13612;BME280;6877;51.436;6.774;2023-02-16T10:38:13;101999.69;;;7.92;66.74
13612;BME280;6877;51.436;6.774;2023-02-16T10:41:11;102005.19;;;8.15;66.32
13612;BME280;6877;51.436;6.774;2023-02-16T10:43:43;102005.53;;;8.43;65.56
13612;BME280;6877;51.436;6.774;2023-02-16T10:46:19;102004.16;;;8.80;64.56
13612;BME280;6877;51.436;6.774;2023-02-16T10:48:53;101998.28;;;9.09;63.42
13612;BME280;6877;51.436;6.774;2023-02-16T10:51:30;101994.97;;;9.34;62.63
13612;BME280;6877;51.436;6.774;2023-02-16T10:54:04;101996.84;;;9.57;61.99
13612;BME280;6877;51.436;6.774;2023-02-16T10:56:58;101993.47;;;9.76;61.47
13612;BME280;6877;51.436;6.774;2023-02-16T10:59:40;101987.41;;;9.92;60.99
13612;BME280;6877;51.436;6.774;2023-02-16T11:04:51;101984.09;;;10.36;60.31
13612;BME280;6877;51.436;6.774;2023-02-16T11:07:23;101983.25;;;10.43;60.09
13612;BME280;6877;51.436;6.774;2023-02-16T11:09:58;101974.53;;;10.51;59.93
13612;BME280;6877;51.436;6.774;2023-02-16T11:12:31;101973.66;;;10.47;60.07
13612;BME280;6877;51.436;6.774;2023-02-16T11:25:58;101949.72;;;9.38;64.40
13612;BME280;6877;51.436;6.774;2023-02-16T11:36:48;101940.00;;;9.17;68.42
13612;BME280;6877;51.436;6.774;2023-02-16T11:39:24;101940.84;;;9.09;70.44
13612;BME280;6877;51.436;6.774;2023-02-16T11:42:00;101940.75;;;8.98;71.07
13612;BME280;6877;51.436;6.774;2023-02-16T11:44:32;101952.06;;;8.95;71.84
13612;BME280;6877;51.436;6.774;2023-02-16T11:47:08;101954.69;;;8.95;72.77
13612;BME280;6877;51.436;6.774;2023-02-16T11:49:49;101942.38;;;8.82;73.87
13612;BME280;6877;51.436;6.774;2023-02-16T11:54:56;101945.69;;;8.63;77.23
13612;BME280;6877;51.436;6.774;2023-02-16T11:57:31;101933.34;;;8.45;77.68
13612;BME280;6877;51.436;6.774;2023-02-16T12:00:05;101912.38;;;8.37;79.34
13612;BME280;6877;51.436;6.774;2023-02-16T12:19:00;101934.72;;;9.10;79.19
13612;BME280;6877;51.436;6.774;2023-02-16T12:21:40;101926.94;;;9.16;78.29
13612;BME280;6877;51.436;6.774;2023-02-16T12:24:17;101925.16;;;9.09;77.16
13612;BME280;6877;51.436;6.774;2023-02-16T12:26:56;101925.19;;;9.13;77.34
13612;BME280;6877;51.436;6.774;2023-02-16T12:32:44;101922.81;;;9.61;76.32
13612;BME280;6877;51.436;6.774;2023-02-16T12:41:18;101929.13;;;10.30;72.65
13612;BME280;6877;51.436;6.774;2023-02-16T12:49:00;101923.00;;;11.23;69.14
13612;BME280;6877;51.436;6.774;2023-02-16T12:51:36;101924.75;;;11.15;69.02
13612;BME280;6877;51.436;6.774;2023-02-16T12:56:39;101917.84;;;10.82;69.77
13612;BME280;6877;51.436;6.774;2023-02-16T13:01:55;101909.97;;;10.30;70.87
13612;BME280;6877;51.436;6.774;2023-02-16T13:04:34;101899.44;;;10.17;71.34
13612;BME280;6877;51.436;6.774;2023-02-16T13:07:14;101884.63;;;10.03;71.99
13612;BME280;6877;51.436;6.774;2023-02-16T13:15:14;101892.44;;;10.01;72.91
13612;BME280;6877;51.436;6.774;2023-02-16T13:18:10;101891.59;;;10.13;72.83
13612;BME280;6877;51.436;6.774;2023-02-16T13:20:52;101880.31;;;10.29;72.49
13612;BME280;6877;51.436;6.774;2023-02-16T13:29:24;101873.34;;;10.54;73.01
13612;BME280;6877;51.436;6.774;2023-02-16T13:38:04;101851.53;;;10.57;72.42
13612;BME280;6877;51.436;6.774;2023-02-16T13:43:35;101848.88;;;10.11;73.81
13612;BME280;6877;51.436;6.774;2023-02-16T13:46:44;101850.59;;;9.87;75.34
13612;BME280;6877;51.436;6.774;2023-02-16T13:52:03;101853.13;;;9.63;77.28
13612;BME280;6877;51.436;6.774;2023-02-16T13:54:35;101860.06;;;9.53;77.72
13612;BME280;6877;51.436;6.774;2023-02-16T13:57:02;101853.06;;;9.43;79.04
13612;BME280;6877;51.436;6.774;2023-02-16T14:02:02;101851.25;;;9.25;82.85
13612;BME280;6877;51.436;6.774;2023-02-16T14:25:00;101788.53;;;9.23;84.97
13612;BME280;6877;51.436;6.774;2023-02-16T14:27:46;101782.50;;;9.35;85.13
13612;BME280;6877;51.436;6.774;2023-02-16T14:38:26;101785.16;;;9.50;82.45
13612;BME280;6877;51.436;6.774;2023-02-16T14:40:55;101787.75;;;9.43;83.08
13612;BME280;6877;51.436;6.774;2023-02-16T14:46:17;101780.75;;;9.34;82.80
13612;BME280;6877;51.436;6.774;2023-02-16T15:00:34;101746.84;;;9.72;80.96
13612;BME280;6877;51.436;6.774;2023-02-16T15:03:15;101745.13;;;9.78;80.37
13612;BME280;6877;51.436;6.774;2023-02-16T15:05:42;101731.19;;;9.79;80.30
13612;BME280;6877;51.436;6.774;2023-02-16T15:08:19;101725.94;;;9.86;80.35
13612;BME280;6877;51.436;6.774;2023-02-16T15:10:51;101723.31;;;9.95;80.12
13612;BME280;6877;51.436;6.774;2023-02-16T15:13:29;101728.56;;;10.05;79.33
13612;BME280;6877;51.436;6.774;2023-02-16T15:15:58;101720.72;;;10.06;79.41
13612;BME280;6877;51.436;6.774;2023-02-16T15:18:32;101724.22;;;10.07;79.53
13612;BME280;6877;51.436;6.774;2023-02-16T15:21:01;101725.09;;;10.06;79.90
13612;BME280;6877;51.436;6.774;2023-02-16T15:23:33;101728.56;;;10.02;79.87
13612;BME280;6877;51.436;6.774;2023-02-16T15:26:19;101728.56;;;9.95;80.19
13612;BME280;6877;51.436;6.774;2023-02-16T15:28:54;101725.09;;;9.93;80.54
13612;BME280;6877;51.436;6.774;2023-02-16T15:31:30;101725.09;;;9.93;80.99
13612;BME280;6877;51.436;6.774;2023-02-16T15:34:02;101734.66;;;9.97;80.86
13612;BME280;6877;51.436;6.774;2023-02-16T15:36:38;101732.03;;;10.05;80.67
13612;BME280;6877;51.436;6.774;2023-02-16T15:41:37;101744.25;;;10.14;80.78
13612;BME280;6877;51.436;6.774;2023-02-16T15:44:06;101731.16;;;10.14;80.88
13612;BME280;6877;51.436;6.774;2023-02-16T15:46:41;101732.03;;;10.13;80.90
13612;BME280;6877;51.436;6.774;2023-02-16T15:51:47;101722.47;;;10.03;81.77
13612;BME280;6877;51.436;6.774;2023-02-16T15:54:26;101723.34;;;10.00;81.86
13612;BME280;6877;51.436;6.774;2023-02-16T16:00:19;101715.47;;;10.02;82.03
13612;BME280;6877;51.436;6.774;2023-02-16T16:02:48;101705.91;;;10.01;82.37
13612;BME280;6877;51.436;6.774;2023-02-16T16:05:31;101711.13;;;10.02;82.65
13612;BME280;6877;51.436;6.774;2023-02-16T16:08:06;101719.84;;;10.03;82.59
13612;BME280;6877;51.436;6.774;2023-02-16T16:10:37;101716.34;;;10.01;82.69
13612;BME280;6877;51.436;6.774;2023-02-16T16:13:17;101712.88;;;9.98;83.02
13612;BME280;6877;51.436;6.774;2023-02-16T16:15:47;101718.09;;;9.97;83.03
13612;BME280;6877;51.436;6.774;2023-02-16T16:18:36;101713.75;;;9.97;83.29
13612;BME280;6877;51.436;6.774;2023-02-16T16:21:30;101708.50;;;9.99;83.32
13612;BME280;6877;51.436;6.774;2023-02-16T16:24:07;101714.63;;;10.00;83.26
13612;BME280;6877;51.436;6.774;2023-02-16T16:26:56;101706.78;;;10.00;83.07
13612;BME280;6877;51.436;6.774;2023-02-16T16:29:38;101709.38;;;9.98;83.12
13612;BME280;6877;51.436;6.774;2023-02-16T16:32:20;101701.53;;;10.01;83.00
13612;BME280;6877;51.436;6.774;2023-02-16T16:34:48;101691.94;;;10.02;82.80
13612;BME280;6877;51.436;6.774;2023-02-16T16:37:27;101697.19;;;10.03;82.69